Airfield :
LOGIN :

Register | Disclaimer

   EN    FR    IT 

 










Legend :    VFR   Marginal VFR   IFR   Intensive IFR   Very Intensive IFR
Visi :
Ceiling :
>= 8 km
>= 3000ft
5 to 8 km
1000 to 3000 ft
1500m to 5 km
500 to 1000 ft
800 to 1500m
200 to 500 ft
< 800m
< 200 ft
Symbols :   Thunderstorms  Fog  Heavy snow  Heavy precipitations  Wind > 20 kt
SIGMETs :     Misc.  Thunderstorms  Icing  Turbulence  Mountain Waves  Volcanic Ashes







- Airport Elevation : 584 ft
- Download approach charts


LFPV - Villacoublay Vélizy

CURRENT METAR :
  • 180700Z AUTO 35009KT 320V040 9999 FEW011 BKN021 BKN029 07/04 Q1022 TEMPO BKN010

EXPIRED METARs :
  • 180630Z AUTO 34010KT 310V020 9999 BKN012 BKN017 BKN026 08/06 Q1022 BECMG BKN015
  • 180600Z AUTO 32009KT 290V350 9999 BKN010 BKN015 BKN021 08/07 Q1021 TEMPO 22010KT 3000 RA BECMG BKN015
  • 180530Z AUTO 33010KT 310V010 9999 BKN009 BKN016 OVC029 08/08 Q1021 TEMPO 22010KT 3000 RA BECMG BKN015
  • 180500Z AUTO 31007KT 280V340 9999 BKN006 BKN010 OVC014 08/08 Q1020 TEMPO 3000 RA OVC002 BECMG 22010KT
  • 180430Z AUTO 30010KT 9999 BKN003 OVC007 08/08 Q1020 TEMPO 3000 RA BECMG 22010KT

TAF AMD TAF LFPV
Valid from the 18 at 06:00 until the 19 at 03:00 UTC


180621Z 1806/1903 35008KT 9999 BKN015
TEMPO 1806/1809 BKN010
BECMG 1823/1901 BKN002
PROB40 1900/1903 0800 BCFG VV///
No reported NOTAMs for that airfield.



MET'MAP, your aeronautical weather chart ! - Copyright ORBIFLY December 2007 - Disclaimer

ORBIFLY MET'MAP TEAM :

Programming & Development : Alexandra Zaïnal
Concept & Development : Baudouin d'Aumeries
Co-Development & Prog : Marc-Olivier Méhu
Technical & hardware support : Manuel Goepfert

Contact : metmap@orbifly.com




SOURCES & CREDITS :

   NOAA